Time;durP1;ratioP1;P1;durP2;ratioP2;P2;SDS_P1;SDS_P2;PMS_P1;PMS_P2;Temp;Humidity;BMP_temperature;BMP_pressure;BME280_temperature;BME280_humidity;BME280_pressure;Samples;Min_cycle;Max_cycle;Signal;HPM_P1;HPM_P2
2021/05/27 00:01:10;;;;;;;10.23;6.60;;;;;;;18.59;67.01;100751.13;1771541;79;21043;-69
2021/05/27 00:03:36;;;;;;;9.28;6.75;;;;;;;18.54;67.28;100750.80;1771937;79;22049;-69
2021/05/27 00:06:03;;;;;;;8.80;6.15;;;;;;;18.51;67.29;100741.83;1737815;80;21124;-69
2021/05/27 00:08:29;;;;;;;9.73;6.05;;;;;;;18.50;67.34;100742.82;1746487;80;21108;-69
2021/05/27 00:10:56;;;;;;;8.30;6.58;;;;;;;18.50;67.40;100745.48;1769294;79;21613;-69
2021/05/27 00:13:22;;;;;;;11.22;6.97;;;;;;;18.48;67.33;100742.98;1761267;80;21514;-69
2021/05/27 00:15:51;;;;;;;10.58;6.90;;;;;;;18.42;67.27;100740.14;1782568;80;21090;-69
2021/05/27 00:18:20;;;;;;;8.88;6.47;;;;;;;18.33;67.31;100729.48;1767789;80;21729;-69
2021/05/27 00:20:47;;;;;;;9.85;6.65;;;;;;;18.28;67.44;100734.47;1769273;80;21641;-69
2021/05/27 00:23:14;;;;;;;9.65;6.55;;;;;;;18.27;67.50;100732.80;1769260;79;21808;-70
2021/05/27 00:25:42;;;;;;;10.65;6.90;;;;;;;18.24;67.60;100729.63;1771134;80;21167;-69
2021/05/27 00:28:09;;;;;;;9.43;6.35;;;;;;;18.22;67.50;100728.97;1761541;80;21119;-69
2021/05/27 00:30:35;;;;;;;7.83;6.28;;;;;;;18.23;67.39;100731.98;1770957;80;21705;-69
2021/05/27 00:33:02;;;;;;;8.50;5.75;;;;;;;18.24;67.44;100733.15;1766229;80;21116;-69
2021/05/27 00:35:28;;;;;;;12.07;6.70;;;;;;;18.23;67.58;100730.64;1747426;80;21633;-69
2021/05/27 00:37:55;;;;;;;8.80;5.75;;;;;;;18.18;67.85;100731.95;1768912;80;21757;-68
2021/05/27 00:40:22;;;;;;;9.08;6.85;;;;;;;18.17;68.08;100720.12;1773994;80;21118;-68
2021/05/27 00:42:48;;;;;;;9.13;6.90;;;;;;;18.17;68.04;100724.13;1773711;79;21123;-68
2021/05/27 00:45:17;;;;;;;10.70;6.53;;;;;;;18.14;68.14;100720.45;1762397;80;21068;-69
2021/05/27 00:47:45;;;;;;;9.48;6.65;;;;;;;18.16;68.05;100719.81;1762128;80;21123;-68
2021/05/27 00:50:20;;;;;;;8.88;5.37;;;;;;;18.22;67.91;100724.47;1770522;79;21534;-69
2021/05/27 00:52:43;;;;;;;9.78;6.00;;;;;;;18.25;67.87;100722.80;1732647;80;21894;-69
2021/05/27 00:55:12;;;;;;;10.58;6.55;;;;;;;18.24;67.85;100727.82;1755519;80;21079;-69
2021/05/27 00:57:40;;;;;;;9.53;6.72;;;;;;;18.19;67.95;100730.14;1755414;79;21018;-69
2021/05/27 01:00:14;;;;;;;9.18;6.55;;;;;;;18.17;68.05;100729.45;1768781;79;21117;-70
2021/05/27 01:02:41;;;;;;;10.30;6.30;;;;;;;18.14;68.14;100729.77;1745449;80;22321;-69
2021/05/27 01:05:10;;;;;;;9.45;6.35;;;;;;;18.08;68.23;100725.95;1769436;79;21115;-69
2021/05/27 01:07:37;;;;;;;10.58;6.45;;;;;;;18.00;68.24;100729.92;1781806;78;21115;-68
2021/05/27 01:10:05;;;;;;;9.53;7.00;;;;;;;17.93;68.27;100731.06;1759499;79;21107;-69
2021/05/27 01:12:32;;;;;;;10.28;7.20;;;;;;;17.86;68.56;100724.70;1765548;79;21589;-69
2021/05/27 01:17:48;;;;;;;11.33;7.85;;;;;;;17.77;68.97;100726.98;1779890;79;21068;-69
2021/05/27 01:20:18;;;;;;;10.03;7.12;;;;;;;17.76;69.10;100726.67;1783832;79;21092;-70
2021/05/27 01:22:44;;;;;;;11.85;7.97;;;;;;;17.75;69.08;100727.18;1742483;80;21067;-69
2021/05/27 01:25:12;;;;;;;10.75;6.90;;;;;;;17.74;69.09;100724.67;1774298;80;21132;-69
2021/05/27 01:27:39;;;;;;;10.85;7.28;;;;;;;17.76;69.11;100726.67;1749890;80;21056;-69
2021/05/27 01:30:08;;;;;;;10.48;6.47;;;;;;;17.84;68.93;100734.69;1768313;80;22024;-70
2021/05/27 01:32:37;;;;;;;10.03;6.60;;;;;;;17.92;68.82;100728.09;1766456;80;21123;-69
2021/05/27 01:35:05;;;;;;;9.83;7.12;;;;;;;17.97;68.67;100721.78;1769944;80;21119;-69
2021/05/27 01:37:32;;;;;;;11.50;7.83;;;;;;;17.95;68.52;100714.94;1769387;80;21539;-69
2021/05/27 01:40:01;;;;;;;11.45;7.58;;;;;;;17.90;68.60;100725.23;1774349;78;21533;-69
2021/05/27 01:42:28;;;;;;;9.08;6.95;;;;;;;17.87;68.70;100726.41;1752128;80;21574;-69
2021/05/27 01:44:55;;;;;;;13.70;8.05;;;;;;;17.84;68.81;100724.04;1770051;79;21032;-69
2021/05/27 01:47:23;;;;;;;10.80;6.92;;;;;;;17.85;68.81;100726.19;1768281;80;21714;-69
2021/05/27 01:49:49;;;;;;;9.63;6.37;;;;;;;17.89;68.62;100722.27;1779381;80;21188;-69
2021/05/27 01:52:15;;;;;;;9.28;6.45;;;;;;;17.92;68.57;100729.90;1778922;80;21526;-69
2021/05/27 01:54:42;;;;;;;9.53;7.90;;;;;;;17.89;68.63;100724.92;1801950;79;21246;-69
2021/05/27 01:57:09;;;;;;;10.28;7.20;;;;;;;17.86;68.62;100721.22;1781846;79;21180;-69
2021/05/27 01:59:37;;;;;;;14.03;8.23;;;;;;;17.82;68.59;100726.86;1789520;78;21092;-69
2021/05/27 02:02:03;;;;;;;10.63;7.17;;;;;;;17.76;68.76;100725.34;1778671;79;21092;-69
2021/05/27 02:04:30;;;;;;;10.63;7.15;;;;;;;17.73;68.90;100724.33;1773905;79;21106;-69
2021/05/27 02:06:57;;;;;;;11.30;7.75;;;;;;;17.76;68.89;100720.02;1804730;77;21088;-69
2021/05/27 02:09:24;;;;;;;9.80;6.80;;;;;;;17.83;68.66;100716.53;1808467;78;21088;-69
2021/05/27 02:11:54;;;;;;;9.43;7.30;;;;;;;17.89;68.50;100711.11;1801311;77;21100;-69
2021/05/27 02:14:22;;;;;;;10.30;8.15;;;;;;;17.91;68.38;100713.09;1788422;78;21107;-69
2021/05/27 02:16:50;;;;;;;14.28;7.78;;;;;;;17.91;68.36;100708.28;1784195;79;21155;-69
2021/05/27 02:19:17;;;;;;;11.40;7.83;;;;;;;17.91;68.26;100711.77;1786271;79;21147;-69
2021/05/27 02:21:49;;;;;;;11.60;8.48;;;;;;;17.91;68.18;100709.61;1784887;78;21194;-69
2021/05/27 02:24:17;;;;;;;9.83;7.53;;;;;;;17.88;68.11;100720.08;1778054;79;21111;-69
2021/05/27 02:26:45;;;;;;;12.45;7.97;;;;;;;17.84;68.20;100718.72;1784617;78;21071;-69
2021/05/27 02:29:12;;;;;;;12.28;8.18;;;;;;;17.85;68.24;100717.70;1770585;79;21587;-69
2021/05/27 02:31:41;;;;;;;10.18;7.17;;;;;;;17.91;68.16;100707.78;1779923;78;21132;-69
2021/05/27 02:34:09;;;;;;;12.43;7.10;;;;;;;17.95;68.15;100709.10;1771926;79;21167;-69
2021/05/27 02:36:37;;;;;;;10.13;7.20;;;;;;;17.99;68.18;100707.80;1781101;78;21052;-69
2021/05/27 02:39:07;;;;;;;14.73;7.42;;;;;;;18.00;68.11;100708.14;1801365;78;21614;-70
2021/05/27 02:41:38;;;;;;;10.93;7.40;;;;;;;17.99;68.06;100706.97;1799123;78;21060;-69
2021/05/27 02:44:05;;;;;;;11.93;8.43;;;;;;;17.95;68.10;100704.28;1804643;78;21118;-69
2021/05/27 02:46:35;;;;;;;13.55;7.03;;;;;;;17.94;68.26;100706.63;1807372;77;21127;-69
2021/05/27 02:49:03;;;;;;;9.13;7.00;;;;;;;17.94;68.29;100704.80;1780382;78;21106;-69
2021/05/27 02:51:30;;;;;;;11.20;7.00;;;;;;;18.01;68.21;100703.64;1797690;78;21115;-69
2021/05/27 02:53:59;;;;;;;13.05;7.80;;;;;;;18.05;68.13;100704.97;1785604;79;21133;-69
2021/05/27 02:56:26;;;;;;;12.73;7.10;;;;;;;18.05;68.08;100699.64;1783960;78;21728;-69
2021/05/27 02:58:52;;;;;;;10.78;7.55;;;;;;;18.04;68.07;100706.45;1751373;79;21066;-69
2021/05/27 03:01:21;;;;;;;11.35;8.15;;;;;;;18.00;68.16;100702.81;1757164;79;21028;-69
2021/05/27 03:03:50;;;;;;;14.38;8.23;;;;;;;17.96;68.20;100701.47;1791622;78;21079;-69
2021/05/27 03:06:18;;;;;;;10.00;7.47;;;;;;;17.88;68.34;100701.44;1779887;78;21111;-69
2021/05/27 03:08:47;;;;;;;12.73;8.48;;;;;;;17.85;68.45;100707.05;1783678;79;21053;-69
2021/05/27 03:11:14;;;;;;;12.43;7.97;;;;;;;17.90;68.38;100696.78;1764401;78;21088;-66
2021/05/27 03:13:43;;;;;;;11.75;8.15;;;;;;;17.97;68.29;100695.63;1796586;78;21590;-69
2021/05/27 03:16:13;;;;;;;12.43;8.70;;;;;;;18.04;68.20;100698.00;1807314;78;21601;-71
2021/05/27 03:18:41;;;;;;;13.48;8.98;;;;;;;18.02;68.09;100693.31;1752949;80;21089;-68
2021/05/27 03:21:08;;;;;;;10.88;8.25;;;;;;;18.00;68.13;100697.97;1800859;78;22291;-71
2021/05/27 03:23:36;;;;;;;14.05;8.38;;;;;;;18.01;68.26;100696.98;1755238;80;22281;-70
2021/05/27 03:26:03;;;;;;;11.53;8.55;;;;;;;18.02;68.37;100694.64;1740970;80;21114;-70
2021/05/27 03:28:33;;;;;;;12.28;8.30;;;;;;;18.12;68.26;100697.16;1779151;80;21108;-67
2021/05/27 03:31:01;;;;;;;12.58;7.72;;;;;;;18.26;68.10;100694.36;1752165;80;21072;-68
2021/05/27 03:33:29;;;;;;;12.28;8.03;;;;;;;18.38;68.03;100695.69;1805585;78;21298;-68
2021/05/27 03:35:56;;;;;;;10.93;8.18;;;;;;;18.46;67.83;100690.36;1799805;78;21163;-70
2021/05/27 03:38:24;;;;;;;14.98;8.95;;;;;;;18.48;67.70;100695.02;1804061;78;21077;-68
2021/05/27 03:40:52;;;;;;;12.07;8.10;;;;;;;18.50;67.77;100698.85;1770949;80;21690;-67
2021/05/27 03:43:19;;;;;;;11.63;8.80;;;;;;;18.47;67.66;100696.01;1804731;78;21128;-67
2021/05/27 03:45:45;;;;;;;13.13;7.75;;;;;;;18.43;67.64;100689.87;1753743;78;21152;-65
2021/05/27 03:48:13;;;;;;;11.57;7.75;;;;;;;18.43;67.69;100688.54;1803681;78;21180;-66
2021/05/27 03:50:41;;;;;;;11.53;8.88;;;;;;;18.49;67.73;100687.84;1801457;78;21060;-67
2021/05/27 03:53:13;;;;;;;13.72;9.20;;;;;;;18.53;67.58;100690.02;1745235;79;21112;-67
2021/05/27 03:55:41;;;;;;;15.08;9.33;;;;;;;18.52;67.45;100691.52;1775352;80;21126;-66
2021/05/27 04:00:54;;;;;;;12.88;9.78;;;;;;;18.50;67.68;100696.19;1775328;79;21108;-66
2021/05/27 04:09:08;;;;;;;17.40;9.03;;;;;;;18.59;67.60;100693.84;1806579;77;21097;-70
2021/05/27 04:11:37;;;;;;;12.75;9.35;;;;;;;18.68;67.46;100682.19;1811325;78;21546;-70
2021/05/27 04:14:03;;;;;;;13.05;9.40;;;;;;;18.78;67.20;100682.01;1812217;78;21075;-70
2021/05/27 04:16:31;;;;;;;14.93;9.68;;;;;;;18.83;67.13;100688.17;1810272;78;21065;-70
2021/05/27 04:18:58;;;;;;;12.50;8.98;;;;;;;18.87;67.05;100691.67;1814577;78;21105;-70
2021/05/27 04:21:24;;;;;;;14.70;9.68;;;;;;;18.86;66.97;100687.84;1791532;78;21077;-69
2021/05/27 04:23:52;;;;;;;13.50;9.65;;;;;;;18.86;66.97;100693.17;1804438;78;21111;-70
2021/05/27 04:26:19;;;;;;;11.08;8.33;;;;;;;18.83;67.10;100686.84;1803889;78;21092;-70
2021/05/27 04:28:47;;;;;;;10.72;8.40;;;;;;;18.85;67.03;100684.86;1801153;78;21075;-67
2021/05/27 04:31:18;;;;;;;14.30;9.30;;;;;;;18.91;67.08;100684.16;1803461;77;20988;-70
2021/05/27 04:33:55;;;;;;;12.18;8.90;;;;;;;18.97;67.04;100687.48;1783625;78;20992;-68
2021/05/27 04:36:21;;;;;;;13.03;10.48;;;;;;;19.03;67.09;100686.81;1733373;79;21029;-68
2021/05/27 04:38:49;;;;;;;17.23;10.30;;;;;;;19.06;67.05;100686.48;1783588;79;21152;-74
2021/05/27 04:41:18;;;;;;;15.43;10.38;;;;;;;19.10;66.96;100688.30;1787237;79;20991;-72
2021/05/27 04:43:47;;;;;;;12.30;9.48;;;;;;;19.09;67.06;100684.78;1759868;79;21079;-71
2021/05/27 04:46:16;;;;;;;12.95;8.68;;;;;;;19.13;67.01;100686.59;1785231;78;21174;-71
2021/05/27 04:48:45;;;;;;;11.43;8.43;;;;;;;19.15;67.09;100687.28;1788817;79;21853;-68
2021/05/27 04:51:12;;;;;;;12.35;8.73;;;;;;;19.21;66.98;100690.58;1760585;79;21142;-70
2021/05/27 04:53:38;;;;;;;14.23;8.80;;;;;;;19.28;66.87;100682.72;1804354;78;21601;-64
2021/05/27 04:56:05;;;;;;;15.85;8.85;;;;;;;19.35;66.78;100685.05;1804156;78;21131;-69
2021/05/27 04:58:32;;;;;;;14.35;9.23;;;;;;;19.40;66.77;100685.84;1744442;79;21535;-69
2021/05/27 05:00:59;;;;;;;12.50;9.48;;;;;;;19.44;66.72;100682.66;1753295;79;21334;-70
2021/05/27 05:03:26;;;;;;;12.10;8.78;;;;;;;19.49;66.52;100672.30;1738880;80;21657;-70
2021/05/27 05:05:55;;;;;;;13.40;9.50;;;;;;;19.48;66.39;100669.31;1754430;79;21658;-71
2021/05/27 05:08:22;;;;;;;13.10;8.88;;;;;;;19.55;66.38;100669.45;1751743;79;21168;-73
2021/05/27 05:10:48;;;;;;;11.00;8.30;;;;;;;19.69;66.31;100675.88;1757136;79;21737;-72
2021/05/27 05:13:14;;;;;;;11.95;7.70;;;;;;;19.82;66.08;100671.30;1756784;79;21111;-74
2021/05/27 05:15:43;;;;;;;12.00;7.95;;;;;;;19.90;66.05;100673.11;1777038;78;21166;-73
2021/05/27 05:18:12;;;;;;;11.15;8.38;;;;;;;19.93;66.10;100676.25;1759526;80;21148;-70
2021/05/27 05:20:44;;;;;;;11.97;9.18;;;;;;;19.98;65.93;100671.72;1757937;79;21108;-70
2021/05/27 05:23:12;;;;;;;10.88;8.50;;;;;;;19.99;65.67;100678.73;1757230;79;21664;-69
2021/05/27 05:25:40;;;;;;;12.73;8.83;;;;;;;19.97;65.81;100678.91;1728030;81;21099;-71
2021/05/27 05:28:07;;;;;;;11.25;8.38;;;;;;;20.04;65.71;100674.52;1749491;81;21183;-69
2021/05/27 05:30:35;;;;;;;13.70;7.53;;;;;;;20.19;65.70;100675.05;1751920;79;21393;-68
2021/05/27 05:33:04;;;;;;;10.40;8.00;;;;;;;20.32;65.50;100668.61;1759635;79;21648;-70
2021/05/27 05:35:30;;;;;;;10.90;7.90;;;;;;;20.43;64.55;100671.37;1751213;80;21103;-70
2021/05/27 05:37:58;;;;;;;11.53;8.38;;;;;;;20.53;63.59;100668.45;1756982;80;21120;-70
2021/05/27 05:40:27;;;;;;;9.88;8.35;;;;;;;20.56;63.28;100659.56;1785414;78;21087;-71
2021/05/27 05:42:55;;;;;;;11.53;7.58;;;;;;;20.60;63.98;100661.36;1745154;79;21056;-71
2021/05/27 05:45:22;;;;;;;9.78;7.50;;;;;;;20.61;64.47;100657.69;1750313;79;21092;-67
2021/05/27 05:47:50;;;;;;;11.10;7.92;;;;;;;20.66;63.85;100662.49;1753869;79;21521;-71
2021/05/27 05:53:04;;;;;;;9.95;6.85;;;;;;;20.75;63.79;100660.08;1755428;79;20985;-61
2021/05/27 05:55:31;;;;;;;9.80;7.78;;;;;;;20.83;63.34;100653.80;1753195;79;21091;-60
2021/05/27 05:57:57;;;;;;;10.53;7.30;;;;;;;20.86;62.89;100655.59;1760440;79;21594;-66
2021/05/27 06:00:24;;;;;;;10.03;7.00;;;;;;;20.86;62.75;100660.94;1778951;78;21228;-68
2021/05/27 06:02:51;;;;;;;9.15;6.15;;;;;;;20.90;62.72;100656.90;1775826;79;21091;-65
2021/05/27 06:05:20;;;;;;;8.70;5.00;;;;;;;20.97;62.32;100659.16;1777816;79;21084;-64
2021/05/27 06:07:49;;;;;;;7.12;4.15;;;;;;;21.06;60.63;100665.75;1773744;79;21099;-72
2021/05/27 06:10:16;;;;;;;6.90;5.10;;;;;;;21.12;58.98;100665.84;1777849;79;21153;-69
2021/05/27 06:12:42;;;;;;;6.50;4.90;;;;;;;21.18;58.72;100658.91;1778585;79;21182;-63
2021/05/27 06:15:10;;;;;;;7.65;5.37;;;;;;;21.21;59.04;100659.88;1781338;79;21130;-64
2021/05/27 06:17:39;;;;;;;7.95;5.12;;;;;;;21.24;58.73;100655.50;1783562;79;21633;-65
2021/05/27 06:20:06;;;;;;;7.12;4.60;;;;;;;21.26;58.82;100658.81;1788488;79;21171;-63
2021/05/27 06:22:36;;;;;;;8.23;4.72;;;;;;;21.30;58.70;100656.10;1777823;79;21725;-61
2021/05/27 06:25:06;;;;;;;7.12;4.45;;;;;;;21.40;58.69;100652.28;1778288;78;21622;-60
2021/05/27 06:27:33;;;;;;;6.92;4.53;;;;;;;21.49;58.48;100655.23;1777471;79;21712;-58
2021/05/27 06:29:59;;;;;;;7.62;4.33;;;;;;;21.63;58.54;100653.00;1778285;79;21372;-58
2021/05/27 06:32:26;;;;;;;6.75;4.30;;;;;;;21.84;58.38;100646.03;1780983;78;21135;-61
2021/05/27 06:34:54;;;;;;;7.45;4.85;;;;;;;22.02;57.58;100650.93;1804971;78;21166;-63
2021/05/27 06:37:21;;;;;;;10.10;4.97;;;;;;;22.14;56.76;100647.22;1808463;77;21585;-66
2021/05/27 06:39:48;;;;;;;7.40;4.80;;;;;;;22.24;57.26;100649.06;1787387;78;21486;-61
2021/05/27 06:42:14;;;;;;;7.95;5.22;;;;;;;22.36;57.80;100655.61;1784692;78;21658;-67
2021/05/27 06:44:41;;;;;;;7.62;5.08;;;;;;;22.45;57.52;100659.79;1762881;79;21096;-67
2021/05/27 06:47:07;;;;;;;8.20;5.22;;;;;;;22.52;57.17;100655.00;1760273;80;21139;-63
2021/05/27 06:49:33;;;;;;;8.30;5.40;;;;;;;22.57;56.94;100655.24;1784502;78;21535;-68
2021/05/27 06:52:01;;;;;;;7.05;5.00;;;;;;;22.61;56.81;100661.86;1785010;79;21120;-61
2021/05/27 06:54:30;;;;;;;7.62;5.75;;;;;;;22.67;56.86;100660.27;1781786;78;21123;-63
2021/05/27 06:56:57;;;;;;;10.28;4.97;;;;;;;22.69;57.02;100664.40;1784663;79;21147;-66
2021/05/27 06:59:23;;;;;;;6.90;4.92;;;;;;;22.73;56.62;100670.20;1797252;78;21106;-62
2021/05/27 07:01:50;;;;;;;9.78;6.17;;;;;;;22.79;56.59;100664.05;1776641;79;21084;-63
2021/05/27 07:04:16;;;;;;;7.78;6.00;;;;;;;22.81;56.07;100656.63;1744373;79;21117;-64
2021/05/27 07:06:42;;;;;;;8.95;5.47;;;;;;;22.81;55.96;100653.95;1744926;80;21146;-64
2021/05/27 07:09:09;;;;;;;7.47;5.28;;;;;;;22.81;55.46;100649.92;1757050;79;21064;-63
2021/05/27 07:11:35;;;;;;;7.78;5.30;;;;;;;22.81;55.26;100640.53;1770429;79;21658;-65
2021/05/27 07:14:03;;;;;;;7.50;5.12;;;;;;;22.81;54.98;100644.07;1751984;78;21147;-64
2021/05/27 07:16:30;;;;;;;7.35;5.65;;;;;;;22.77;55.59;100637.42;1784490;78;21135;-64
2021/05/27 07:18:56;;;;;;;7.72;5.37;;;;;;;22.76;56.07;100641.16;1783742;78;21092;-65
2021/05/27 07:21:22;;;;;;;7.20;4.83;;;;;;;22.81;56.14;100641.88;1780185;78;21135;-64
2021/05/27 07:23:49;;;;;;;8.10;5.85;;;;;;;22.97;55.71;100635.38;1787117;78;21613;-64
2021/05/27 07:26:15;;;;;;;8.58;5.12;;;;;;;23.11;55.58;100627.72;1785679;78;21072;-67
2021/05/27 07:28:42;;;;;;;6.47;4.75;;;;;;;23.23;54.78;100633.87;1774878;78;21135;-67
2021/05/27 07:31:09;;;;;;;7.17;5.15;;;;;;;23.37;55.15;100635.59;1789599;78;21080;-66
2021/05/27 07:33:36;;;;;;;9.15;5.42;;;;;;;23.48;53.48;100630.14;1785638;78;21012;-67
2021/05/27 07:36:04;;;;;;;7.87;5.50;;;;;;;23.51;53.68;100635.94;1775167;79;21797;-63
2021/05/27 07:38:31;;;;;;;8.68;5.37;;;;;;;23.53;53.38;100627.16;1763193;79;21151;-64
2021/05/27 07:40:58;;;;;;;8.30;5.10;;;;;;;23.57;53.62;100628.95;1760403;78;21110;-59
2021/05/27 07:43:25;;;;;;;8.98;5.45;;;;;;;23.64;53.72;100631.65;1783627;78;22393;-59
2021/05/27 07:45:51;;;;;;;10.00;5.80;;;;;;;23.69;53.56;100617.09;1772226;79;21418;-59
2021/05/27 07:48:19;;;;;;;11.00;6.40;;;;;;;23.73;53.17;100618.33;1763888;78;21139;-62
2021/05/27 07:50:45;;;;;;;8.48;6.10;;;;;;;23.75;51.73;100618.94;1761929;78;21601;-60
2021/05/27 07:53:16;;;;;;;7.80;5.37;;;;;;;23.72;51.92;100621.54;1764469;79;21048;-58
2021/05/27 07:55:42;;;;;;;7.97;5.25;;;;;;;23.69;52.58;100629.19;1779883;78;21119;-58
2021/05/27 07:58:09;;;;;;;8.68;5.87;;;;;;;23.69;52.68;100622.47;1761507;79;21605;-58
2021/05/27 08:00:36;;;;;;;9.08;5.80;;;;;;;23.70;53.05;100617.39;1765879;78;21219;-61
2021/05/27 08:03:02;;;;;;;7.42;5.25;;;;;;;23.70;53.10;100616.89;1747224;80;21079;-65
2021/05/27 08:05:28;;;;;;;8.33;6.00;;;;;;;23.72;52.86;100610.79;1767123;80;22727;-63
2021/05/27 08:07:55;;;;;;;8.45;5.37;;;;;;;23.72;52.75;100613.48;1764172;78;21125;-64
2021/05/27 08:10:21;;;;;;;9.03;5.58;;;;;;;23.71;52.85;100617.70;1743710;80;21068;-67
2021/05/27 08:12:48;;;;;;;11.70;5.70;;;;;;;23.72;52.99;100619.34;1758127;80;21095;-64
2021/05/27 08:15:14;;;;;;;11.10;6.25;;;;;;;23.69;53.27;100618.44;1765076;80;21088;-64
2021/05/27 08:17:41;;;;;;;8.38;5.83;;;;;;;23.67;53.31;100617.78;1774975;79;21123;-63
2021/05/27 08:20:09;;;;;;;10.40;6.30;;;;;;;23.64;53.61;100616.35;1746298;80;21083;-61
2021/05/27 08:22:36;;;;;;;11.65;7.35;;;;;;;23.67;53.90;100610.58;1767627;78;21037;-61
2021/05/27 08:25:04;;;;;;;9.53;6.90;;;;;;;23.66;53.83;100607.56;1776658;78;21454;-64
2021/05/27 08:27:30;;;;;;;9.80;6.53;;;;;;;23.62;54.21;100607.67;1746836;80;21125;-61
2021/05/27 08:29:59;;;;;;;9.85;6.95;;;;;;;23.57;53.98;100607.46;1742903;79;21127;-62
2021/05/27 08:32:27;;;;;;;8.90;6.28;;;;;;;23.55;53.92;100604.97;1770958;79;21357;-61
2021/05/27 08:34:54;;;;;;;11.45;6.53;;;;;;;23.58;53.38;100594.84;1747417;80;21531;-62
2021/05/27 08:37:20;;;;;;;10.05;6.30;;;;;;;23.65;53.73;100598.36;1750131;79;21041;-62
2021/05/27 08:39:47;;;;;;;8.18;6.25;;;;;;;23.75;53.80;100604.17;1771414;78;21082;-63
2021/05/27 08:42:15;;;;;;;15.08;7.37;;;;;;;23.87;53.67;100601.73;1750789;80;21166;-66
2021/05/27 08:44:42;;;;;;;10.72;7.12;;;;;;;23.97;53.65;100598.12;1755622;80;21120;-62
2021/05/27 08:49:54;;;;;;;10.35;7.83;;;;;;;24.14;52.98;100593.69;1860513;76;22529;-61
2021/05/27 08:52:20;;;;;;;11.18;8.85;;;;;;;24.17;52.75;100598.12;1827645;77;21004;-63
2021/05/27 08:54:46;;;;;;;13.72;7.58;;;;;;;24.17;52.29;100594.62;1823638;76;21074;-64
2021/05/27 08:57:13;;;;;;;11.68;8.23;;;;;;;24.13;52.48;100600.11;1802151;77;21594;-66
2021/05/27 08:59:39;;;;;;;12.15;7.15;;;;;;;24.07;52.77;100604.44;1807965;77;21111;-66
2021/05/27 09:02:10;;;;;;;9.55;7.50;;;;;;;24.00;52.10;100610.33;1828545;76;21016;-68
2021/05/27 09:04:38;;;;;;;11.05;8.05;;;;;;;23.95;52.22;100610.94;1824776;77;21075;-69
2021/05/27 09:07:05;;;;;;;9.53;7.92;;;;;;;23.90;52.46;100607.52;1822278;76;21071;-68
2021/05/27 09:09:56;;;;;;;8.45;7.20;;;;;;;23.92;52.87;100605.48;1833867;76;21040;-68
2021/05/27 09:12:34;;;;;;;9.43;7.22;;;;;;;23.95;53.04;100605.56;1826210;76;20996;-69
2021/05/27 09:15:19;;;;;;;10.55;8.28;;;;;;;23.98;52.90;100607.03;1812096;77;21002;-69
2021/05/27 09:17:51;;;;;;;11.28;8.68;;;;;;;23.99;52.98;100607.33;1830715;76;21108;-69
2021/05/27 09:20:25;;;;;;;11.30;7.70;;;;;;;24.02;53.03;100606.91;1835192;76;21659;-68
2021/05/27 09:23:16;;;;;;;11.80;8.10;;;;;;;24.04;52.80;100601.66;1836888;76;21068;-67
2021/05/27 09:25:46;;;;;;;11.03;8.03;;;;;;;24.05;52.56;100603.82;1830238;76;21004;-69
2021/05/27 09:28:23;;;;;;;12.35;10.65;;;;;;;24.01;52.55;100606.63;1831399;77;21155;-69
2021/05/27 09:30:56;;;;;;;10.90;8.53;;;;;;;24.00;52.45;100600.41;1835783;76;21091;-67
2021/05/27 09:34:02;;;;;;;10.98;8.10;;;;;;;24.06;52.85;100597.42;1809031;77;21042;-70
2021/05/27 09:36:29;;;;;;;8.83;7.65;;;;;;;24.13;53.13;100587.48;1764509;79;21049;-70
2021/05/27 09:38:59;;;;;;;9.10;8.15;;;;;;;24.25;52.71;100582.31;1772793;79;21062;-70
2021/05/27 09:41:31;;;;;;;9.65;8.25;;;;;;;24.37;53.10;100578.47;1781756;79;21087;-74
2021/05/27 09:44:09;;;;;;;10.08;8.05;;;;;;;24.53;53.00;100574.50;1762955;79;21108;-73
2021/05/27 09:46:56;;;;;;;9.70;8.45;;;;;;;24.65;52.11;100573.68;1759359;79;21226;-70
2021/05/27 09:49:26;;;;;;;17.07;7.17;;;;;;;24.81;52.45;100575.59;1759930;80;21725;-66
2021/05/27 09:51:53;;;;;;;9.05;7.25;;;;;;;24.99;52.38;100567.66;1741913;80;21532;-66
2021/05/27 09:54:20;;;;;;;8.93;7.67;;;;;;;25.12;51.19;100568.66;1738530;80;21139;-67
2021/05/27 09:56:46;;;;;;;10.43;7.40;;;;;;;25.20;50.31;100571.08;1757033;80;21760;-71
2021/05/27 09:59:13;;;;;;;8.03;6.40;;;;;;;25.21;50.62;100568.17;1764384;80;21207;-73
2021/05/27 10:01:40;;;;;;;8.20;5.97;;;;;;;25.20;50.56;100570.58;1741091;80;21091;-66
2021/05/27 10:04:15;;;;;;;6.53;5.65;;;;;;;25.14;50.78;100573.30;1747426;80;21143;-65
2021/05/27 10:06:42;;;;;;;;;;;;;;;25.06;51.16;100576.23;1761521;80;21672;-66
2021/05/27 10:09:11;;;;;;;8.38;6.33;;;;;;;24.99;51.07;100573.04;1762078;80;20767;-70
2021/05/27 10:11:39;;;;;;;9.45;5.20;;;;;;;24.86;51.27;100565.02;1759632;80;21115;-66
2021/05/27 10:14:07;;;;;;;6.25;4.58;;;;;;;24.77;51.65;100568.47;1763642;80;21151;-66
2021/05/27 10:16:37;;;;;;;7.53;4.05;;;;;;;24.70;51.83;100569.55;1761499;80;21196;-65
2021/05/27 10:19:06;;;;;;;6.58;4.90;;;;;;;24.60;51.88;100565.41;1759136;80;21136;-66
2021/05/27 10:21:33;;;;;;;6.87;4.50;;;;;;;24.53;51.64;100572.66;1761642;80;21096;-65
2021/05/27 10:24:00;;;;;;;7.37;4.28;;;;;;;24.44;52.01;100568.52;1758143;80;21099;-67
2021/05/27 10:26:26;;;;;;;6.00;4.10;;;;;;;24.36;51.64;100564.20;1755453;80;21107;-66
2021/05/27 10:28:53;;;;;;;5.95;4.78;;;;;;;24.29;51.42;100570.94;1763228;80;21132;-66
2021/05/27 10:31:21;;;;;;;6.50;4.08;;;;;;;24.21;51.65;100567.12;1739835;80;21854;-66
2021/05/27 10:33:48;;;;;;;6.62;4.10;;;;;;;24.16;51.91;100566.06;1759772;80;21104;-66
2021/05/27 10:36:16;;;;;;;6.20;3.90;;;;;;;24.13;52.50;100568.67;1759710;80;21163;-67
2021/05/27 10:38:51;;;;;;;7.70;3.75;;;;;;;24.09;52.39;100568.77;1759120;80;21087;-68
2021/05/27 10:41:29;;;;;;;6.87;3.35;;;;;;;23.99;52.43;100574.58;1765806;80;21079;-66
2021/05/27 10:44:05;;;;;;;7.03;3.65;;;;;;;23.86;52.59;100572.70;1757603;80;21091;-65
2021/05/27 10:46:43;;;;;;;5.85;3.20;;;;;;;23.78;52.90;100568.83;1764203;80;21072;-68
2021/05/27 10:49:11;;;;;;;7.20;3.20;;;;;;;23.69;53.11;100568.73;1745247;80;21102;-66
2021/05/27 10:51:49;;;;;;;4.75;2.40;;;;;;;23.60;53.47;100568.61;1761040;79;21626;-68
2021/05/27 10:54:08;;;;;;;5.92;3.10;;;;;;;23.52;53.48;100565.09;1758043;80;21514;-67
2021/05/27 10:56:39;;;;;;;4.87;2.92;;;;;;;23.46;54.02;100561.05;1769439;80;21612;-68
2021/05/27 10:59:15;;;;;;;5.83;2.98;;;;;;;23.43;54.17;100566.30;1765404;80;21095;-68
2021/05/27 11:01:50;;;;;;;5.33;2.65;;;;;;;23.38;54.10;100563.39;1738582;80;21630;-70
2021/05/27 11:04:29;;;;;;;5.17;2.60;;;;;;;23.31;53.42;100561.22;1766056;80;21022;-70
2021/05/27 11:07:18;;;;;;;7.72;3.15;;;;;;;23.18;53.50;100558.81;1765040;80;21072;-68
2021/05/27 11:09:48;;;;;;;9.48;2.70;;;;;;;23.09;54.30;100561.34;1761935;80;21116;-69
2021/05/27 11:15:03;;;;;;;5.20;3.17;;;;;;;23.01;54.66;100560.14;1793656;77;22666;-74
2021/05/27 11:17:30;;;;;;;6.70;4.03;;;;;;;22.87;54.97;100563.82;1771328;78;21178;-75
2021/05/27 11:20:11;;;;;;;6.70;3.45;;;;;;;22.77;55.83;100566.34;1745880;80;21166;-75
2021/05/27 11:22:54;;;;;;;6.70;4.15;;;;;;;22.69;56.96;100577.23;1734406;80;21084;-74
2021/05/27 11:25:25;;;;;;;16.65;4.08;;;;;;;22.54;58.85;100580.55;1710211;81;21032;-74
2021/05/27 11:28:13;;;;;;;6.12;3.45;;;;;;;22.39;59.96;100589.55;1730075;80;21089;-76
2021/05/27 11:30:44;;;;;;;6.28;3.35;;;;;;;22.23;61.53;100584.44;1721065;81;21060;-74
2021/05/27 11:33:30;;;;;;;7.45;3.70;;;;;;;21.96;63.16;100594.12;1730237;80;21678;-76
2021/05/27 11:35:59;;;;;;;;;;;;;;;21.73;64.34;100594.30;1712690;81;22548;-75
2021/05/27 11:38:30;;;;;;;5.25;3.05;;;;;;;21.51;65.06;100591.61;1711966;82;20374;-76
2021/05/27 11:40:59;;;;;;;6.25;3.20;;;;;;;21.25;65.55;100599.63;1713745;81;21140;-76
2021/05/27 11:43:33;;;;;;;7.35;3.17;;;;;;;21.07;65.59;100598.69;1722263;81;21104;-76
2021/05/27 11:46:04;;;;;;;5.12;3.00;;;;;;;20.95;66.00;100599.67;1723003;81;21692;-76
2021/05/27 11:48:35;;;;;;;9.58;3.72;;;;;;;20.89;66.45;100588.88;1688711;82;21049;-76